createdAt,value
2023-04-15T00:02:00.134Z,4.16
2023-04-15T00:04:29.082Z,4.16
2023-04-15T00:06:57.292Z,4.15
2023-04-15T00:09:25.365Z,4.19
2023-04-15T00:11:53.771Z,4.19
2023-04-15T00:14:22.162Z,4.21
2023-04-15T00:16:56.297Z,4.22
2023-04-15T00:19:24.738Z,4.18
2023-04-15T00:21:52.820Z,4.20
2023-04-15T00:24:20.918Z,4.23
2023-04-15T00:26:49.232Z,4.30
2023-04-15T00:29:17.280Z,4.32
2023-04-15T00:31:45.859Z,4.37
2023-04-15T00:34:15.316Z,4.40
2023-04-15T00:36:43.480Z,4.41
2023-04-15T00:39:11.537Z,4.40
2023-04-15T00:41:40.415Z,4.45
2023-04-15T00:44:08.579Z,4.48
2023-04-15T00:46:38.472Z,4.50
2023-04-15T00:49:07.792Z,4.55
2023-04-15T00:51:37.646Z,4.58
2023-04-15T00:54:06.899Z,4.63
2023-04-15T00:56:38.105Z,4.64
2023-04-15T00:59:07.206Z,4.61
2023-04-15T01:01:36.551Z,4.62
2023-04-15T01:04:05.517Z,4.62
2023-04-15T01:06:33.958Z,4.59
2023-04-15T01:09:03.841Z,4.64
2023-04-15T01:11:34.440Z,4.60
2023-04-15T01:14:02.919Z,4.63
2023-04-15T01:16:31.208Z,4.61
2023-04-15T01:18:59.608Z,4.64
2023-04-15T01:21:28.206Z,4.64
2023-04-15T01:23:58.553Z,4.63
2023-04-15T01:26:28.349Z,4.70
2023-04-15T01:28:56.528Z,4.68
2023-04-15T01:31:24.647Z,4.73
2023-04-15T01:33:52.940Z,4.77
2023-04-15T01:36:21.078Z,4.81
2023-04-15T01:38:49.477Z,4.79
2023-04-15T01:41:17.584Z,4.83
2023-04-15T01:43:50.421Z,4.82
2023-04-15T01:46:18.673Z,4.85
2023-04-15T01:48:46.793Z,4.85
2023-04-15T01:51:15.107Z,4.92
2023-04-15T01:53:43.876Z,4.91
2023-04-15T01:56:12.021Z,4.92
2023-04-15T01:58:40.517Z,4.92
2023-04-15T02:01:10.635Z,4.96
2023-04-15T02:03:39.777Z,5.05
2023-04-15T02:06:08.015Z,5.02
2023-04-15T02:08:36.065Z,5.05
2023-04-15T02:11:04.232Z,5.17
2023-04-15T02:13:32.260Z,5.11
2023-04-15T02:16:00.653Z,5.16
2023-04-15T02:18:30.146Z,5.14
2023-04-15T02:20:58.913Z,5.13
2023-04-15T02:23:27.171Z,5.15
2023-04-15T02:25:55.193Z,5.18
2023-04-15T02:28:23.350Z,5.16
2023-04-15T02:30:53.095Z,5.13
2023-04-15T02:33:22.578Z,5.13
2023-04-15T02:35:53.385Z,5.01
2023-04-15T02:38:21.430Z,5.18
2023-04-15T02:40:51.127Z,5.23
2023-04-15T02:43:19.197Z,5.23
2023-04-15T02:45:48.457Z,5.20
2023-04-15T02:48:19.123Z,5.21
2023-04-15T02:50:48.140Z,5.24
2023-04-15T02:53:17.752Z,5.28
2023-04-15T02:55:46.293Z,5.27
2023-04-15T02:58:14.637Z,5.25
2023-04-15T03:00:42.655Z,5.28
2023-04-15T03:03:11.008Z,5.24
2023-04-15T03:05:40.176Z,5.28
2023-04-15T03:08:08.475Z,5.28
2023-04-15T03:10:37.969Z,5.31
2023-04-15T03:13:06.041Z,5.37
2023-04-15T03:15:34.647Z,5.32
2023-04-15T03:18:02.790Z,5.31
2023-04-15T03:20:31.004Z,5.34
2023-04-15T03:22:59.136Z,5.32
2023-04-15T03:25:27.221Z,5.30
2023-04-15T03:27:57.035Z,5.33
2023-04-15T03:30:25.210Z,5.31
2023-04-15T03:32:53.490Z,5.30
2023-04-15T03:35:21.549Z,5.31
2023-04-15T03:37:49.637Z,5.31
2023-04-15T03:40:17.706Z,5.32
2023-04-15T03:42:45.708Z,5.32
2023-04-15T03:45:15.230Z,5.33
2023-04-15T03:47:43.377Z,5.33
2023-04-15T03:50:11.886Z,5.31
2023-04-15T03:52:40.087Z,5.29
2023-04-15T03:55:08.610Z,5.30
2023-04-15T03:57:39.186Z,5.25
2023-04-15T04:00:10.220Z,5.25
2023-04-15T04:02:39.934Z,5.25
2023-04-15T04:05:08.726Z,5.23
2023-04-15T04:07:37.132Z,5.24
2023-04-15T04:10:05.768Z,5.25
2023-04-15T04:12:34.323Z,5.32
2023-04-15T04:15:03.317Z,5.33
2023-04-15T04:17:31.598Z,5.30
2023-04-15T04:20:01.123Z,5.33
2023-04-15T04:22:29.293Z,5.42
2023-04-15T04:24:59.586Z,5.39
2023-04-15T04:27:27.872Z,5.44
2023-04-15T04:29:56.227Z,5.42
2023-04-15T04:32:24.468Z,5.45
2023-04-15T04:34:52.766Z,5.50
2023-04-15T04:37:23.486Z,5.57
2023-04-15T04:39:51.678Z,5.69
2023-04-15T04:42:19.762Z,6.46
2023-04-15T04:44:47.913Z,6.88
2023-04-15T04:47:16.160Z,6.71
2023-04-15T04:49:44.268Z,6.63
2023-04-15T04:52:12.448Z,6.56
2023-04-15T04:54:41.950Z,6.57
2023-04-15T04:57:12.707Z,6.55
2023-04-15T04:59:41.018Z,6.59
2023-04-15T05:02:09.161Z,6.56
2023-04-15T05:04:38.428Z,6.68
2023-04-15T05:07:06.522Z,6.80
2023-04-15T05:09:36.236Z,6.85
2023-04-15T05:12:06.013Z,6.91
2023-04-15T05:14:34.129Z,7.01
2023-04-15T05:17:02.211Z,6.96
2023-04-15T05:19:30.584Z,7.03
2023-04-15T05:22:00.019Z,7.12
2023-04-15T05:24:28.404Z,7.22
2023-04-15T05:26:56.934Z,7.22
2023-04-15T05:29:26.417Z,7.27
2023-04-15T05:31:54.482Z,7.25
2023-04-15T05:34:22.632Z,7.29
2023-04-15T05:36:50.695Z,7.22
2023-04-15T05:39:18.813Z,7.33
2023-04-15T05:41:46.955Z,7.43
2023-04-15T05:44:15.041Z,7.53
2023-04-15T05:46:44.629Z,7.70
2023-04-15T05:49:12.703Z,7.78
2023-04-15T05:51:41.121Z,7.87
2023-04-15T05:54:09.370Z,7.86
2023-04-15T05:56:37.554Z,7.89
2023-04-15T05:59:05.717Z,8.08
2023-04-15T06:01:35.042Z,8.29
2023-04-15T06:04:04.662Z,8.45
2023-04-15T06:06:32.849Z,8.42
2023-04-15T06:09:01.231Z,8.26
2023-04-15T06:11:29.504Z,8.22
2023-04-15T06:13:57.799Z,8.26
2023-04-15T06:16:26.338Z,8.71
2023-04-15T06:18:54.528Z,9.11
2023-04-15T06:21:24.134Z,10.42
2023-04-15T06:23:52.149Z,11.06
2023-04-15T06:26:20.250Z,11.87
2023-04-15T06:28:48.515Z,12.43
2023-04-15T06:31:16.749Z,12.79
2023-04-15T06:33:44.902Z,12.80
2023-04-15T06:36:12.936Z,13.32
2023-04-15T06:38:44.885Z,13.36
2023-04-15T06:41:13.051Z,13.14
2023-04-15T06:43:41.270Z,12.97
2023-04-15T06:46:09.447Z,12.73
2023-04-15T06:48:37.610Z,12.57
2023-04-15T06:51:06.263Z,12.99
2023-04-15T06:53:35.694Z,13.24
2023-04-15T06:56:05.182Z,13.14
2023-04-15T06:58:33.313Z,12.67
2023-04-15T07:01:01.466Z,12.40
2023-04-15T07:03:32.669Z,12.01
2023-04-15T07:06:01.850Z,12.05
2023-04-15T07:08:29.974Z,12.27
2023-04-15T07:10:58.176Z,12.37
2023-04-15T07:13:27.661Z,12.59
2023-04-15T07:15:56.107Z,12.56
2023-04-15T07:18:24.185Z,12.67
2023-04-15T07:20:53.799Z,12.59
2023-04-15T07:23:21.857Z,12.49
2023-04-15T07:25:50.746Z,12.37
2023-04-15T07:28:18.879Z,12.32
2023-04-15T07:30:48.484Z,12.24
2023-04-15T07:33:16.634Z,12.23
2023-04-15T07:35:45.262Z,12.54
2023-04-15T07:38:13.821Z,12.57
2023-04-15T07:40:42.600Z,12.81
2023-04-15T07:43:11.008Z,12.71
2023-04-15T07:45:39.157Z,12.67
2023-04-15T07:48:09.599Z,12.80
2023-04-15T07:50:39.544Z,12.73
2023-04-15T07:53:09.546Z,12.61
2023-04-15T07:55:38.041Z,12.57
2023-04-15T07:58:08.430Z,12.75
2023-04-15T08:00:37.750Z,12.78
2023-04-15T08:03:07.009Z,12.84
2023-04-15T08:05:36.805Z,12.98
2023-04-15T08:08:05.532Z,13.33
2023-04-15T08:10:33.740Z,13.57
2023-04-15T08:13:01.876Z,13.59
2023-04-15T08:15:30.038Z,13.68
2023-04-15T08:17:59.368Z,13.42
2023-04-15T08:20:27.811Z,13.06
2023-04-15T08:22:57.362Z,12.97
2023-04-15T08:25:25.901Z,12.61
2023-04-15T08:27:59.988Z,12.40
2023-04-15T08:30:28.413Z,12.16
2023-04-15T08:32:57.667Z,11.86
2023-04-15T08:35:26.075Z,11.72
2023-04-15T08:37:54.205Z,11.72
2023-04-15T08:40:34.243Z,11.93
2023-04-15T08:43:04.987Z,12.36
2023-04-15T08:45:40.188Z,12.83
2023-04-15T08:48:11.529Z,13.26
2023-04-15T08:50:39.898Z,13.43
2023-04-15T08:53:08.364Z,13.35
2023-04-15T08:55:41.227Z,13.30
2023-04-15T08:58:09.857Z,13.22
2023-04-15T09:00:38.407Z,13.08
2023-04-15T09:03:06.914Z,13.13
2023-04-15T09:05:35.666Z,13.18
2023-04-15T09:08:06.834Z,13.04
2023-04-15T09:10:39.328Z,13.33
2023-04-15T09:13:07.907Z,13.52
2023-04-15T09:15:39.993Z,13.60
2023-04-15T09:18:08.303Z,13.31
2023-04-15T09:20:41.722Z,13.14
2023-04-15T09:23:17.749Z,12.84
2023-04-15T09:25:50.727Z,12.48
2023-04-15T09:28:26.554Z,12.15
2023-04-15T09:30:58.076Z,12.37
2023-04-15T09:33:27.550Z,12.40
2023-04-15T09:36:00.204Z,12.27
2023-04-15T09:38:28.430Z,12.53
2023-04-15T09:40:58.704Z,12.42
2023-04-15T09:43:39.431Z,12.66
2023-04-15T09:46:07.707Z,12.70
2023-04-15T09:48:36.044Z,12.63
2023-04-15T09:51:04.245Z,12.32
2023-04-15T09:53:35.558Z,12.21
2023-04-15T09:56:07.989Z,12.36
2023-04-15T09:58:38.869Z,12.32
2023-04-15T10:01:09.377Z,12.14
2023-04-15T10:03:37.818Z,11.95
2023-04-15T10:06:06.617Z,11.92
2023-04-15T10:08:35.950Z,11.80
2023-04-15T10:11:06.913Z,12.00
2023-04-15T10:13:37.551Z,11.97
2023-04-15T10:16:08.402Z,11.81
2023-04-15T10:18:39.351Z,11.56
2023-04-15T10:21:10.041Z,11.54
2023-04-15T10:23:39.454Z,11.74
2023-04-15T10:26:09.634Z,12.00
2023-04-15T10:28:37.717Z,12.24
2023-04-15T10:31:07.431Z,12.27
2023-04-15T10:33:36.413Z,12.51
2023-04-15T10:36:04.888Z,12.67
2023-04-15T10:38:37.837Z,12.63
2023-04-15T10:41:21.202Z,12.34
2023-04-15T10:43:53.895Z,11.64
2023-04-15T10:46:26.765Z,11.41
2023-04-15T10:48:55.656Z,11.46
2023-04-15T10:51:32.302Z,11.45
2023-04-15T10:54:01.896Z,11.38
2023-04-15T10:56:32.321Z,11.58
2023-04-15T10:59:02.649Z,11.57
2023-04-15T11:01:55.241Z,11.50
2023-04-15T11:04:55.211Z,11.72
2023-04-15T11:07:37.489Z,12.08
2023-04-15T11:10:26.479Z,12.31
2023-04-15T11:12:58.971Z,12.03
2023-04-15T11:15:30.902Z,12.07
2023-04-15T11:18:02.490Z,12.28
2023-04-15T11:20:31.518Z,12.32
2023-04-15T11:23:14.825Z,12.25
2023-04-15T11:25:47.159Z,12.05
2023-04-15T11:28:17.552Z,12.07
2023-04-15T11:30:45.842Z,12.24
2023-04-15T11:33:14.303Z,12.54
2023-04-15T11:35:42.843Z,12.87
2023-04-15T11:38:12.759Z,12.89
2023-04-15T11:40:42.464Z,12.87
2023-04-15T11:43:13.913Z,12.83
2023-04-15T11:45:53.409Z,12.68
2023-04-15T11:48:24.843Z,12.33
2023-04-15T11:50:57.115Z,12.40
2023-04-15T11:53:27.103Z,12.58
2023-04-15T11:55:55.712Z,12.51
2023-04-15T11:58:28.001Z,12.68
2023-04-15T12:01:00.398Z,12.56
2023-04-15T12:03:30.600Z,12.64
2023-04-15T12:06:06.702Z,13.06
2023-04-15T12:09:05.327Z,13.54
2023-04-15T12:11:36.702Z,13.74
2023-04-15T12:14:07.582Z,13.64
2023-04-15T12:16:47.967Z,13.17
2023-04-15T12:19:18.315Z,13.36
2023-04-15T12:21:48.971Z,13.32
2023-04-15T12:24:17.397Z,13.50
2023-04-15T12:26:47.395Z,13.66
2023-04-15T12:29:19.008Z,13.74
2023-04-15T12:31:52.900Z,13.82
2023-04-15T12:34:29.591Z,13.78
2023-04-15T12:36:59.106Z,13.62
2023-04-15T12:39:30.443Z,13.36
2023-04-15T12:41:59.478Z,13.22
2023-04-15T12:44:28.092Z,13.03
2023-04-15T12:46:58.302Z,12.84
2023-04-15T12:49:26.918Z,12.73
2023-04-15T12:51:57.870Z,12.75
2023-04-15T12:54:26.959Z,12.78
2023-04-15T12:56:55.640Z,12.75
2023-04-15T12:59:24.517Z,12.90
2023-04-15T13:01:53.996Z,12.89
2023-04-15T13:04:24.432Z,12.84
2023-04-15T13:06:52.836Z,12.98
2023-04-15T13:09:21.589Z,12.96
2023-04-15T13:11:51.342Z,12.99
2023-04-15T13:14:19.546Z,12.85
2023-04-15T13:16:47.642Z,12.84
2023-04-15T13:19:16.111Z,12.92
2023-04-15T13:21:45.591Z,12.93
2023-04-15T13:24:13.654Z,12.92
2023-04-15T13:26:44.790Z,12.84
2023-04-15T13:29:15.296Z,12.90
2023-04-15T13:31:43.549Z,12.92
2023-04-15T13:34:11.749Z,13.04
2023-04-15T13:36:41.851Z,13.10
2023-04-15T13:39:11.568Z,13.16
2023-04-15T13:41:39.919Z,13.22
2023-04-15T13:44:08.077Z,13.30
2023-04-15T13:46:36.402Z,13.32
2023-04-15T13:49:04.649Z,13.11
2023-04-15T13:51:33.741Z,12.97
2023-04-15T13:54:02.625Z,13.02
2023-04-15T13:56:36.337Z,13.02
2023-04-15T13:59:04.900Z,13.10
2023-04-15T14:01:33.262Z,13.42
2023-04-15T14:04:03.442Z,13.59
2023-04-15T14:06:32.473Z,13.81
2023-04-15T14:09:00.835Z,13.96
2023-04-15T14:11:30.421Z,13.95
2023-04-15T14:14:00.162Z,13.81
2023-04-15T14:16:28.367Z,13.58
2023-04-15T14:18:56.512Z,13.33
2023-04-15T14:21:24.830Z,13.09
2023-04-15T14:23:53.143Z,13.06
2023-04-15T14:26:21.661Z,12.85
2023-04-15T14:28:49.911Z,12.67
2023-04-15T14:31:20.723Z,12.61
2023-04-15T14:33:49.049Z,12.55
2023-04-15T14:36:17.341Z,12.51
2023-04-15T14:38:48.764Z,12.66
2023-04-15T14:41:18.918Z,12.53
2023-04-15T14:43:47.409Z,12.56
2023-04-15T14:46:16.061Z,12.45
2023-04-15T14:48:45.886Z,12.42
2023-04-15T14:51:14.160Z,12.43
2023-04-15T14:53:42.608Z,12.38
2023-04-15T14:56:10.882Z,12.37
2023-04-15T14:58:39.149Z,12.41
2023-04-15T15:01:07.724Z,12.40
2023-04-15T15:03:36.603Z,12.40
2023-04-15T15:06:06.474Z,12.21
2023-04-15T15:08:34.924Z,12.08
2023-04-15T15:11:03.366Z,11.98
2023-04-15T15:13:31.580Z,11.93
2023-04-15T15:15:59.753Z,11.83
2023-04-15T15:18:27.879Z,11.74
2023-04-15T15:20:56.034Z,11.59
2023-04-15T15:23:26.046Z,11.44
2023-04-15T15:25:54.104Z,11.39
2023-04-15T15:28:22.692Z,11.47
2023-04-15T15:30:50.736Z,11.37
2023-04-15T15:33:19.215Z,11.40
2023-04-15T15:35:47.698Z,11.28
2023-04-15T15:38:16.302Z,11.24
2023-04-15T15:40:45.809Z,11.21
2023-04-15T15:43:13.811Z,11.17
2023-04-15T15:45:42.052Z,11.12
2023-04-15T15:48:10.775Z,10.97
2023-04-15T15:50:39.220Z,10.85
2023-04-15T15:53:07.363Z,10.77
2023-04-15T15:55:35.477Z,10.66
2023-04-15T15:58:04.939Z,10.51
2023-04-15T16:00:33.216Z,10.39
2023-04-15T16:05:32.374Z,10.27
2023-04-15T16:08:00.504Z,10.15
2023-04-15T16:10:28.953Z,10.11
2023-04-15T16:12:57.101Z,10.09
2023-04-15T16:15:27.568Z,10.08
2023-04-15T16:17:55.787Z,10.04
2023-04-15T16:20:24.302Z,10.02
2023-04-15T16:22:52.391Z,10.06
2023-04-15T16:25:20.842Z,10.11
2023-04-15T16:28:00.856Z,10.16
2023-04-15T16:30:36.635Z,10.16
2023-04-15T16:33:05.371Z,10.18
2023-04-15T16:35:34.634Z,10.18
2023-04-15T16:38:03.514Z,10.21
2023-04-15T16:40:32.706Z,10.18
2023-04-15T16:43:01.204Z,10.07
2023-04-15T16:45:29.758Z,10.04
2023-04-15T16:47:59.793Z,9.89
2023-04-15T16:50:28.366Z,9.77
2023-04-15T16:52:57.220Z,9.74
2023-04-15T16:55:27.305Z,9.69
2023-04-15T16:58:02.562Z,9.61
2023-04-15T17:00:33.385Z,9.46
2023-04-15T17:03:03.939Z,9.39
2023-04-15T17:05:32.422Z,9.30
2023-04-15T17:08:00.812Z,9.19
2023-04-15T17:10:29.239Z,9.12
2023-04-15T17:12:57.705Z,9.01
2023-04-15T17:15:26.254Z,8.96
2023-04-15T17:17:55.293Z,8.90
2023-04-15T17:20:24.912Z,8.83
2023-04-15T17:22:54.212Z,8.76
2023-04-15T17:25:23.440Z,8.66
2023-04-15T17:27:51.502Z,8.54
2023-04-15T17:30:20.879Z,8.50
2023-04-15T17:32:49.722Z,8.46
2023-04-15T17:35:18.377Z,8.31
2023-04-15T17:37:50.211Z,8.23
2023-04-15T17:40:18.814Z,8.14
2023-04-15T17:42:47.616Z,7.98
2023-04-15T17:45:16.295Z,7.84
2023-04-15T17:47:45.355Z,7.66
2023-04-15T17:50:14.251Z,7.50
2023-04-15T17:52:43.203Z,7.38
2023-04-15T17:58:02.653Z,7.19
2023-04-15T18:00:32.065Z,7.14
2023-04-15T18:03:00.701Z,7.08
2023-04-15T18:05:30.199Z,7.05
2023-04-15T18:08:00.598Z,7.03
2023-04-15T18:10:30.704Z,7.00
2023-04-15T18:13:01.057Z,7.01
2023-04-15T18:15:30.547Z,6.99
2023-04-15T18:17:59.993Z,6.98
2023-04-15T18:20:29.579Z,6.96
2023-04-15T18:22:58.103Z,6.92
2023-04-15T18:25:27.218Z,6.95
2023-04-15T18:27:58.345Z,6.93
2023-04-15T18:30:27.370Z,6.94
2023-04-15T18:32:56.208Z,6.91
2023-04-15T18:35:25.618Z,6.88
2023-04-15T18:37:55.237Z,6.87
2023-04-15T18:40:25.681Z,6.83
2023-04-15T18:42:55.020Z,6.80
2023-04-15T18:45:26.787Z,6.78
2023-04-15T18:47:57.036Z,6.77
2023-04-15T18:50:26.625Z,6.73
2023-04-15T18:52:55.174Z,6.71
2023-04-15T18:55:24.929Z,6.64
2023-04-15T18:57:54.496Z,6.59
2023-04-15T19:00:28.200Z,6.52
2023-04-15T19:02:57.677Z,6.48
2023-04-15T19:05:27.710Z,6.43
2023-04-15T19:07:59.699Z,6.41
2023-04-15T19:10:28.931Z,6.37
2023-04-15T19:12:58.093Z,6.35
2023-04-15T19:15:29.422Z,6.33
2023-04-15T19:17:58.477Z,6.18
2023-04-15T19:20:27.612Z,6.17
2023-04-15T19:22:57.212Z,6.03
2023-04-15T19:25:26.201Z,6.01
2023-04-15T19:27:55.782Z,6.01
2023-04-15T19:30:26.558Z,5.97
2023-04-15T19:32:57.120Z,5.99
2023-04-15T19:35:28.339Z,6.01
2023-04-15T19:37:56.922Z,6.00
2023-04-15T19:40:26.223Z,5.98
2023-04-15T19:42:55.832Z,5.99
2023-04-15T19:45:25.580Z,5.95
2023-04-15T19:48:01.094Z,5.97
2023-04-15T19:50:29.453Z,5.96
2023-04-15T19:52:58.330Z,5.97
2023-04-15T19:55:30.664Z,5.98
2023-04-15T19:58:00.316Z,6.00
2023-04-15T20:00:30.120Z,6.01
2023-04-15T20:03:01.058Z,6.00
2023-04-15T20:05:31.596Z,5.99
2023-04-15T20:08:00.729Z,5.99
2023-04-15T20:10:31.028Z,5.96
2023-04-15T20:12:59.573Z,5.96
2023-04-15T20:15:29.238Z,6.00
2023-04-15T20:17:58.509Z,6.02
2023-04-15T20:20:30.193Z,6.09
2023-04-15T20:22:58.542Z,6.08
2023-04-15T20:25:27.308Z,6.12
2023-04-15T20:27:58.133Z,6.13
2023-04-15T20:30:29.521Z,6.13
2023-04-15T20:32:57.836Z,6.11
2023-04-15T20:35:31.401Z,6.09
2023-04-15T20:38:01.424Z,6.07
2023-04-15T20:40:30.075Z,6.13
2023-04-15T20:42:58.593Z,6.05
2023-04-15T20:45:27.507Z,6.07
2023-04-15T20:47:57.477Z,6.01
2023-04-15T20:50:25.574Z,6.10
2023-04-15T20:52:55.386Z,6.16
2023-04-15T20:55:23.831Z,6.15
2023-04-15T20:57:54.148Z,6.14
2023-04-15T21:00:22.391Z,6.20
2023-04-15T21:02:51.386Z,6.20
2023-04-15T21:05:20.216Z,6.19
2023-04-15T21:07:49.129Z,6.19
2023-04-15T21:10:19.040Z,6.18
2023-04-15T21:12:47.568Z,6.14
2023-04-15T21:15:15.769Z,6.15
2023-04-15T21:17:43.893Z,6.12
2023-04-15T21:20:13.458Z,6.08
2023-04-15T21:22:41.707Z,6.01
2023-04-15T21:25:10.808Z,5.96
2023-04-15T21:27:40.285Z,5.87
2023-04-15T21:30:09.347Z,5.73
2023-04-15T21:32:37.583Z,5.67
2023-04-15T21:35:06.652Z,5.66
2023-04-15T21:37:34.804Z,5.62
2023-04-15T21:40:02.909Z,5.57
2023-04-15T21:42:31.239Z,5.52
2023-04-15T21:45:00.713Z,5.54
2023-04-15T21:47:28.861Z,5.60
2023-04-15T21:49:57.095Z,5.63
2023-04-15T21:52:25.219Z,5.64
2023-04-15T21:54:53.257Z,5.66
2023-04-15T21:57:21.359Z,5.67
2023-04-15T21:59:49.477Z,5.67
2023-04-15T22:02:19.098Z,5.68
2023-04-15T22:04:47.240Z,5.72
2023-04-15T22:07:15.701Z,5.70
2023-04-15T22:09:43.758Z,5.62
2023-04-15T22:12:11.837Z,5.65
2023-04-15T22:14:39.847Z,5.69
2023-04-15T22:17:07.923Z,5.65
2023-04-15T22:19:37.414Z,5.61
2023-04-15T22:22:05.509Z,5.65
2023-04-15T22:24:40.330Z,5.65
2023-04-15T22:27:08.694Z,5.66
2023-04-15T22:29:36.733Z,5.66
2023-04-15T22:32:04.825Z,5.70
2023-04-15T22:34:32.834Z,5.65
2023-04-15T22:37:06.796Z,5.64
2023-04-15T22:39:35.345Z,5.61
2023-04-15T22:42:03.488Z,5.66
2023-04-15T22:44:31.566Z,5.64
2023-04-15T22:46:59.678Z,5.71
2023-04-15T22:49:27.782Z,5.72
2023-04-15T22:51:56.050Z,5.75
2023-04-15T22:54:25.760Z,5.84
2023-04-15T22:56:53.850Z,5.83
2023-04-15T22:59:21.939Z,5.88
2023-04-15T23:01:50.286Z,5.88
2023-04-15T23:04:26.137Z,6.05
2023-04-15T23:06:55.083Z,6.13
2023-04-15T23:09:23.338Z,6.15
2023-04-15T23:11:52.836Z,6.15
2023-04-15T23:14:21.018Z,6.09
2023-04-15T23:16:49.045Z,6.11
2023-04-15T23:19:17.216Z,6.15
2023-04-15T23:21:45.712Z,6.18
2023-04-15T23:24:14.017Z,6.19
2023-04-15T23:26:42.097Z,6.19
2023-04-15T23:29:11.938Z,6.20
2023-04-15T23:31:41.723Z,6.24
2023-04-15T23:34:10.010Z,6.21
2023-04-15T23:36:38.251Z,6.25
2023-04-15T23:39:06.471Z,6.25
2023-04-15T23:41:34.641Z,6.22
2023-04-15T23:44:02.800Z,6.14
2023-04-15T23:46:32.479Z,6.06
2023-04-15T23:49:00.636Z,5.85
2023-04-15T23:51:28.738Z,5.76
2023-04-15T23:53:56.881Z,5.72
2023-04-15T23:56:25.017Z,5.66
2023-04-15T23:58:53.068Z,5.65
